Página principal
METAR-TAF:

METAR-TAF

Aeroportos :

Gibraltar, Gibraltar

Aeroporto de Gibraltar

latitude: 36-09N, longitude: 005-21W, altura: 5 m

Observação actual do tempo

O boletim foi feito há 1 hora e 11 minutos, às 18:50 UTC
Vento 5 kt de nor-noroeste
Temperatura 12°C
Humidade 47%
Pressão 1021 hPa
Visibilidade 10 km ou mais

METAR: LXGB 121850Z AUTO 33005KT 9999 // NCD 12/01 Q1021

Hora: 21:01 (20:01 UTC)

Previsão

O boletim foi feito há 5 horas e 5 minutos, às 14:56 UTC
Previsão válida de 12 às 15 UTC a 12 às 22 UTC
Vento 3 kt de este
Visibilidade 10 km ou mais
Poucas nuvensa uma altura de 2500 ft
Tornando-se
de 12 às 18 UTC a 12 às 21 UTC
Vento 3 kt com direcção variável

TAF: LXGB 121456Z 1215/1222 08003KT 9999 FEW025 BECMG 1218/1221 VRB03KT

Observações e previsões do tempo de mais de 4000 aeroportos (mensagens METAR e TAF).

As estações disponíveis são os pontos amarelos e vermelhos sobre o mapa.

Mova o rato sobre o mapa para ver o nome da estação.

Depois clique no ponto para visualizar as observações e previsões meteorológicas.

Para alterar o mapa : clique nos botões verdes com uma cruz preta para aumentar o zoom; no botão verde com uma pitada de zoom; ou nas setas verdes para mapas adjacentes.


METAR-TAF: